Observation data for Spur on 12/13/2019      Previous  Date       Current Mesonet Observations  Soil Data  Daily Summary Page  Observations in Plain Language
KSP1 130600Z 01001KT 03/M01 A2995 RMK A01 T00261008  RH  079%=      5-min Rain = 0
KSP1 130605Z 34003KT 03/M01 A2995 RMK A01 T00251009  RH  079%=      5-min Rain = 0
KSP1 130610Z 33003KT 03/M01 A2995 RMK A01 T00261008  RH  079%=      5-min Rain = 0
KSP1 130615Z 32005KT 03/M01 A2994 RMK A01 T00261009  RH  079%=      5-min Rain = 0
KSP1 130620Z 33006KT 02/M01 A2994 RMK A01 T00231010  RH  079%=      5-min Rain = 0
KSP1 130625Z 33005KT 02/M01 A2994 RMK A01 T00211010  RH  081%=      5-min Rain = 0
KSP1 130630Z 31006KT 02/M01 A2994 RMK A01 T00221008  RH  081%=      5-min Rain = 0
KSP1 130635Z 31006KT 03/M01 A2994 RMK A01 T00251007  RH  080%=      5-min Rain = 0
KSP1 130640Z 33005KT 02/M01 A2994 RMK A01 T00241009  RH  080%=      5-min Rain = 0
KSP1 130645Z 36004KT 02/M01 A2994 RMK A01 T00231009  RH  080%=      5-min Rain = 0
KSP1 130650Z 33004KT 02/M01 A2993 RMK A01 T00231010  RH  079%=      5-min Rain = 0
KSP1 130655Z 33005KT 02/M01 A2993 RMK A01 T00221010  RH  080%=      5-min Rain = 0
KSP1 130700Z 33006KT 02/M01 A2993 RMK A01 T00201011  RH  081%=      5-min Rain = 0
KSP1 130705Z 33006KT 02/M01 A2993 RMK A01 T00201010  RH  081%=      5-min Rain = 0
KSP1 130710Z 32006KT 02/M01 A2992 RMK A01 T00191010  RH  081%=      5-min Rain = 0
KSP1 130715Z 32006KT 02/M01 A2992 RMK A01 T00201010  RH  082%=      5-min Rain = 0
KSP1 130720Z 33008KT 02/M01 A2992 RMK A01 T00211010  RH  081%=      5-min Rain = 0
KSP1 130725Z 33007KT 02/M01 A2991 RMK A01 T00231010  RH  080%=      5-min Rain = 0
KSP1 130730Z 33006KT 02/M01 A2992 RMK A01 T00211012  RH  080%=      5-min Rain = 0
KSP1 130735Z 32006KT 02/M01 A2992 RMK A01 T00221009  RH  080%=      5-min Rain = 0
KSP1 130740Z 32005KT 02/M01 A2992 RMK A01 T00211011  RH  081%=      5-min Rain = 0
KSP1 130745Z 33006KT 02/M01 A2992 RMK A01 T00211011  RH  081%=      5-min Rain = 0
KSP1 130750Z 34006KT 02/M01 A2992 RMK A01 T00181014  RH  080%=      5-min Rain = 0
KSP1 130755Z 34007KT 02/M01 A2992 RMK A01 T00171013  RH  081%=      5-min Rain = 0
KSP1 130800Z 33008KT 02/M01 A2992 RMK A01 T00171013  RH  081%=      5-min Rain = 0
KSP1 130805Z 33007KT 02/M01 A2992 RMK A01 T00191012  RH  081%=      5-min Rain = 0
KSP1 130810Z 33006KT 02/M01 A2992 RMK A01 T00201013  RH  080%=      5-min Rain = 0
KSP1 130815Z 33004KT 02/M01 A2991 RMK A01 T00181014  RH  080%=      5-min Rain = 0
KSP1 130820Z 33004KT 02/M02 A2992 RMK A01 T00171016  RH  080%=      5-min Rain = 0
KSP1 130825Z 33005KT 02/M01 A2991 RMK A01 T00161014  RH  081%=      5-min Rain = 0
KSP1 130830Z 33005KT 02/M02 A2991 RMK A01 T00161015  RH  081%=      5-min Rain = 0
KSP1 130835Z 33005KT 01/M02 A2991 RMK A01 T00131017  RH  081%=      5-min Rain = 0
KSP1 130840Z 34006KT 01/M02 A2991 RMK A01 T00111016  RH  083%=      5-min Rain = 0
KSP1 130845Z 34006KT 01/M02 A2991 RMK A01 T00131015  RH  083%=      5-min Rain = 0
KSP1 130850Z 33005KT 01/M02 A2991 RMK A01 T00131015  RH  082%=      5-min Rain = 0
KSP1 130855Z 33005KT 01/M02 A2991 RMK A01 T00141015  RH  082%=      5-min Rain = 0
KSP1 130900Z 34007KT 01/M02 A2991 RMK A01 T00131015  RH  082%=      5-min Rain = 0
KSP1 130905Z 33007KT 01/M02 A2991 RMK A01 T00111016  RH  083%=      5-min Rain = 0
KSP1 130910Z 33007KT 01/M02 A2991 RMK A01 T00131016  RH  082%=      5-min Rain = 0
KSP1 130915Z 33007KT 01/M02 A2991 RMK A01 T00111017  RH  083%=      5-min Rain = 0
KSP1 130920Z 33007KT 02/M01 A2991 RMK A01 T00151014  RH  082%=      5-min Rain = 0
KSP1 130925Z 33007KT 02/M01 A2991 RMK A01 T00201014  RH  079%=      5-min Rain = 0
KSP1 130930Z 33007KT 02/M01 A2991 RMK A01 T00201014  RH  079%=      5-min Rain = 0
KSP1 130935Z 33007KT 02/M02 A2991 RMK A01 T00201015  RH  078%=      5-min Rain = 0
KSP1 130940Z 32007KT 02/M01 A2991 RMK A01 T00201014  RH  079%=      5-min Rain = 0
KSP1 130945Z 33007KT 02/M01 A2991 RMK A01 T00221013  RH  078%=      5-min Rain = 0
KSP1 130950Z 33007KT 02/M02 A2991 RMK A01 T00201015  RH  078%=      5-min Rain = 0
KSP1 130955Z 33007KT 02/M02 A299 RMK A01 T00191015  RH  079%=      5-min Rain = 0
KSP1 131000Z 33007KT 02/M02 A2991 RMK A01 T00201015  RH  078%=      5-min Rain = 0
KSP1 131005Z 33007KT 02/M02 A2991 RMK A01 T00201015  RH  078%=      5-min Rain = 0
KSP1 131010Z 33005KT 02/M02 A2991 RMK A01 T00191016  RH  079%=      5-min Rain = 0
KSP1 131015Z 34005KT 02/M02 A299 RMK A01 T00171017  RH  079%=      5-min Rain = 0
KSP1 131020Z 36005KT 02/M02 A299 RMK A01 T00151016  RH  080%=      5-min Rain = 0
KSP1 131025Z 34005KT 02/M02 A299 RMK A01 T00161016  RH  080%=      5-min Rain = 0
KSP1 131030Z 33007KT 01/M02 A2991 RMK A01 T00131017  RH  081%=      5-min Rain = 0
KSP1 131035Z 34007KT 01/M02 A299 RMK A01 T00141016  RH  081%=      5-min Rain = 0
KSP1 131040Z 34007KT 01/M02 A299 RMK A01 T00141016  RH  081%=      5-min Rain = 0
KSP1 131045Z 35004KT 01/M02 A299 RMK A01 T00141017  RH  081%=      5-min Rain = 0
KSP1 131050Z 33004KT 01/M02 A299 RMK A01 T00131017  RH  081%=      5-min Rain = 0
KSP1 131055Z 32005KT 02/M02 A299 RMK A01 T00151016  RH  081%=      5-min Rain = 0
KSP1 131100Z 33006KT 01/M02 A299 RMK A01 T00141017  RH  080%=      5-min Rain = 0
KSP1 131105Z 34007KT 01/M02 A299 RMK A01 T00141017  RH  080%=      5-min Rain = 0
KSP1 131110Z 33007KT 01/M02 A299 RMK A01 T00141016  RH  081%=      5-min Rain = 0
KSP1 131115Z 32006KT 02/M02 A299 RMK A01 T00161015  RH  081%=      5-min Rain = 0
KSP1 131120Z 34006KT 01/M02 A299 RMK A01 T00141017  RH  081%=      5-min Rain = 0
KSP1 131125Z 33006KT 01/M02 A299 RMK A01 T00141016  RH  081%=      5-min Rain = 0
KSP1 131130Z 33006KT 02/M02 A2989 RMK A01 T00161015  RH  081%=      5-min Rain = 0
KSP1 131135Z 31004KT 02/M01 A299 RMK A01 T00191014  RH  080%=      5-min Rain = 0
KSP1 131140Z 32004KT 02/M01 A299 RMK A01 T00191014  RH  080%=      5-min Rain = 0
KSP1 131145Z 33006KT 02/M01 A299 RMK A01 T00201013  RH  080%=      5-min Rain = 0
KSP1 131150Z 33005KT 02/M02 A299 RMK A01 T00191015  RH  079%=      5-min Rain = 0
KSP1 131155Z 32005KT 02/M02 A299 RMK A01 T00171015  RH  080%=      5-min Rain = 0
KSP1 131200Z 31006KT 02/M01 A299 RMK A01 T00191014  RH  080%=      5-min Rain = 0
KSP1 131205Z 29005KT 02/M02 A2991 RMK A01 T00181015  RH  080%=      5-min Rain = 0
KSP1 131210Z 29005KT 02/M02 A2991 RMK A01 T00181015  RH  080%=      5-min Rain = 0
KSP1 131215Z 27001KT 02/M02 A2991 RMK A01 T00211015  RH  078%=      5-min Rain = 0
KSP1 131220Z 31001KT 02/M02 A2991 RMK A01 T00171017  RH  079%=      5-min Rain = 0
KSP1 131225Z 33004KT 02/M02 A2991 RMK A01 T00181015  RH  080%=      5-min Rain = 0
KSP1 131230Z 33007KT 02/M02 A2991 RMK A01 T00221015  RH  077%=      5-min Rain = 0
KSP1 131235Z 33006KT 02/M02 A299 RMK A01 T00211017  RH  077%=      5-min Rain = 0
KSP1 131240Z 33006KT 02/M02 A299 RMK A01 T00171017  RH  079%=      5-min Rain = 0
KSP1 131245Z 32006KT 02/M02 A299 RMK A01 T00171016  RH  079%=      5-min Rain = 0
KSP1 131250Z 34007KT 02/M02 A2991 RMK A01 T00201015  RH  079%=      5-min Rain = 0
KSP1 131255Z 35007KT 02/M02 A2991 RMK A01 T00191015  RH  079%=      5-min Rain = 0
KSP1 131300Z 35008KT 02/M01 A2991 RMK A01 T00191014  RH  079%=      5-min Rain = 0
KSP1 131305Z 36008KT 02/M01 A2991 RMK A01 T00241014  RH  077%=      5-min Rain = 0
KSP1 131310Z 35008KT 03/M01 A2991 RMK A01 T00261014  RH  076%=      5-min Rain = 0
KSP1 131315Z 34006KT 02/M01 A2992 RMK A01 T00231014  RH  077%=      5-min Rain = 0
KSP1 131320Z 33005KT 02/M01 A2991 RMK A01 T00211014  RH  079%=      5-min Rain = 0
KSP1 131325Z 32005KT 02/M01 A2991 RMK A01 T00231013  RH  078%=      5-min Rain = 0
KSP1 131330Z 32005KT 03/M01 A2991 RMK A01 T00251013  RH  077%=      5-min Rain = 0
KSP1 131335Z 30003KT 03/M01 A2991 RMK A01 T00261013  RH  077%=      5-min Rain = 0
KSP1 131340Z 32002KT 02/M01 A2991 RMK A01 T00241014  RH  077%=      5-min Rain = 0
KSP1 131345Z 30002KT 02/M02 A2991 RMK A01 T00241015  RH  076%=      5-min Rain = 0
KSP1 131350Z 33004KT 03/M02 A2991 RMK A01 T00251015  RH  076%=      5-min Rain = 0
KSP1 131355Z 32004KT 03/M01 A2991 RMK A01 T00271013  RH  075%=      5-min Rain = 0
KSP1 131400Z 33005KT 03/M01 A2991 RMK A01 T00291013  RH  074%=      5-min Rain = 0
KSP1 131405Z 32006KT 03/M01 A2991 RMK A01 T00341012  RH  073%=      5-min Rain = 0
KSP1 131410Z 33007KT 04/M01 A2992 RMK A01 T00401011  RH  070%=      5-min Rain = 0
KSP1 131415Z 32010KT 05/M01 A2992 RMK A01 T00451011  RH  068%=      5-min Rain = 0
KSP1 131420Z 33011KT 05/M01 A2992 RMK A01 T00501012  RH  065%=      5-min Rain = 0
KSP1 131425Z 33010KT 05/M01 A2992 RMK A01 T00541013  RH  063%=      5-min Rain = 0
KSP1 131430Z 33008KT 06/M01 A2993 RMK A01 T00561012  RH  062%=      5-min Rain = 0
KSP1 131435Z 33006KT 06/M01 A2992 RMK A01 T00561012  RH  062%=      5-min Rain = 0
KSP1 131440Z 34005KT 06/M01 A2992 RMK A01 T00571010  RH  063%=      5-min Rain = 0
KSP1 131445Z 34004KT 06/M01 A2993 RMK A01 T00591009  RH  062%=      5-min Rain = 0
KSP1 131450Z 34005KT 06/M01 A2993 RMK A01 T00611009  RH  061%=      5-min Rain = 0
KSP1 131455Z 33004KT 06/M01 A2994 RMK A01 T00601010  RH  061%=      5-min Rain = 0
KSP1 131500Z 33004KT 06/M01 A2994 RMK A01 T00621009  RH  061%=      5-min Rain = 0
KSP1 131505Z 34004KT 07/M01 A2994 RMK A01 T00651008  RH  060%=      5-min Rain = 0
KSP1 131510Z 34004KT 07/M01 A2994 RMK A01 T00681006  RH  060%=      5-min Rain = 0
KSP1 131515Z 32004KT 07/M00 A2994 RMK A01 T00711003  RH  060%=      5-min Rain = 0
KSP1 131520Z 34004KT 08/00 A2994 RMK A01 T00760000  RH  059%=      5-min Rain = 0
KSP1 131525Z 32005KT 09/M00 A2993 RMK A01 T00861001  RH  055%=      5-min Rain = 0
KSP1 131530Z 32006KT 10/M01 A2993 RMK A01 T00961005  RH  050%=      5-min Rain = 0
KSP1 131535Z 32007KT 10/M01 A2993 RMK A01 T00991008  RH  048%=      5-min Rain = 0
KSP1 131540Z 32005KT 10/M01 A2994 RMK A01 T01001008  RH  048%=      5-min Rain = 0
KSP1 131545Z 31003KT 10/M01 A2993 RMK A01 T01031007  RH  047%=      5-min Rain = 0
KSP1 131550Z 32004KT 10/M01 A2993 RMK A01 T01031008  RH  046%=      5-min Rain = 0
KSP1 131555Z 32002KT 10/M01 A2994 RMK A01 T01031006  RH  047%=      5-min Rain = 0
KSP1 131600Z 00002KT 11/M01 A2994 RMK A01 T01091007  RH  045%=      5-min Rain = 0
KSP1 131605Z 02001KT 12/M01 A2994 RMK A01 T01151006  RH  044%=      5-min Rain = 0
KSP1 131610Z 22002KT 12/M01 A2994 RMK A01 T01221006  RH  042%=      5-min Rain = 0
KSP1 131615Z 29004KT 12/M01 A2993 RMK A01 T01231006  RH  041%=      5-min Rain = 0
KSP1 131620Z 28003KT 13/M00 A2993 RMK A01 T01251003  RH  042%=      5-min Rain = 0
KSP1 131625Z 27003KT 13/M00 A2993 RMK A01 T01291003  RH  041%=      5-min Rain = 0
KSP1 131630Z 28004KT 14/M00 A2992 RMK A01 T01351001  RH  040%=      5-min Rain = 0
KSP1 131635Z 28005KT 14/M00 A2992 RMK A01 T01361004  RH  039%=      5-min Rain = 0
KSP1 131640Z 29003KT 14/M00 A2992 RMK A01 T01401001  RH  038%=      5-min Rain = 0
KSP1 131645Z 30003KT 14/M00 A2991 RMK A01 T01421001  RH  038%=      5-min Rain = 0
KSP1 131650Z 29004KT 15/M00 A2991 RMK A01 T01451001  RH  037%=      5-min Rain = 0
KSP1 131655Z 28003KT 15/M00 A2991 RMK A01 T01471001  RH  037%=      5-min Rain = 0
KSP1 131700Z 31003KT 15/M00 A299 RMK A01 T01501003  RH  036%=      5-min Rain = 0
KSP1 131705Z 31003KT 16/00 A2991 RMK A01 T01550001  RH  036%=      5-min Rain = 0
KSP1 131710Z 30002KT 16/M00 A299 RMK A01 T01581001  RH  034%=      5-min Rain = 0
KSP1 131715Z 30002KT 17/01 A299 RMK A01 T01680006  RH  034%=      5-min Rain = 0
KSP1 131720Z 31003KT 17/00 A299 RMK A01 T01730004  RH  032%=      5-min Rain = 0
KSP1 131725Z 29005G10KT 18/00 A299 RMK A01 T01780004  RH  031%=      5-min Rain = 0
KSP1 131730Z 29010G15KT 18/00 A299 RMK A01 T01820002  RH  030%=      5-min Rain = 0
KSP1 131735Z 30012KT 18/00 A299 RMK A01 T01820001  RH  030%=      5-min Rain = 0
KSP1 131740Z 30011KT 18/00 A299 RMK A01 T018000-0  RH  030%=      5-min Rain = 0
KSP1 131745Z 31007KT 18/00 A2989 RMK A01 T01810000  RH  030%=      5-min Rain = 0
KSP1 131750Z 31007KT 18/00 A2989 RMK A01 T01830000  RH  029%=      5-min Rain = 0
KSP1 131755Z 31006KT 18/M00 A2988 RMK A01 T01841002  RH  029%=      5-min Rain = 0
KSP1 131800Z 31007KT 19/00 A2989 RMK A01 T01860003  RH  029%=      5-min Rain = 0
KSP1 131805Z 32006KT 19/00 A2989 RMK A01 T01900003  RH  029%=      5-min Rain = 0
KSP1 131810Z 31006KT 19/00 A2988 RMK A01 T01930002  RH  028%=      5-min Rain = 0
KSP1 131815Z 32010KT 20/00 A2987 RMK A01 T01960000  RH  027%=      5-min Rain = 0
KSP1 131820Z 33011G17KT 20/00 A2987 RMK A01 T01980001  RH  027%=      5-min Rain = 0
KSP1 131825Z 32011KT 20/00 A2987 RMK A01 T01980000  RH  027%=      5-min Rain = 0
KSP1 131830Z 31009KT 20/00 A2987 RMK A01 T01990004  RH  027%=      5-min Rain = 0
KSP1 131835Z 31011G16KT 20/01 A2986 RMK A01 T02020005  RH  027%=      5-min Rain = 0
KSP1 131840Z 30013KT 20/00 A2986 RMK A01 T02010004  RH  027%=      5-min Rain = 0
KSP1 131845Z 31011G16KT 20/00 A2986 RMK A01 T02000004  RH  027%=      5-min Rain = 0
KSP1 131850Z 30012G18KT 20/00 A2985 RMK A01 T02000003  RH  027%=      5-min Rain = 0
KSP1 131855Z 30011G17KT 20/00 A2985 RMK A01 T02040003  RH  026%=      5-min Rain = 0
KSP1 131900Z 31012KT 21/00 A2984 RMK A01 T02050003  RH  026%=      5-min Rain = 0
KSP1 131905Z 31011G16KT 21/00 A2984 RMK A01 T02070003  RH  026%=      5-min Rain = 0
KSP1 131910Z 33008G13KT 21/01 A2983 RMK A01 T02090005  RH  026%=      5-min Rain = 0
KSP1 131915Z 32010G15KT 21/00 A2983 RMK A01 T02090002  RH  025%=      5-min Rain = 0
KSP1 131920Z 30011G19KT 21/00 A2983 RMK A01 T021300-0  RH  024%=      5-min Rain = 0
KSP1 131925Z 30013KT 21/M00 A2983 RMK A01 T02131002  RH  024%=      5-min Rain = 0
KSP1 131930Z 30015KT 21/M01 A2983 RMK A01 T02131006  RH  023%=      5-min Rain = 0
KSP1 131935Z 31013G18KT 22/M00 A2983 RMK A01 T02171003  RH  023%=      5-min Rain = 0
KSP1 131940Z 32013G20KT 22/M00 A2983 RMK A01 T02171003  RH  023%=      5-min Rain = 0
KSP1 131945Z 31014G19KT 22/M00 A2983 RMK A01 T02181004  RH  023%=      5-min Rain = 0
KSP1 131950Z 30014G21KT 22/M01 A2983 RMK A01 T02171005  RH  023%=      5-min Rain = 0
KSP1 131955Z 31014G19KT 22/M00 A2983 RMK A01 T02151004  RH  023%=      5-min Rain = 0
KSP1 132000Z 32015G22KT 21/M00 A2983 RMK A01 T02121004  RH  024%=      5-min Rain = 0
KSP1 132005Z 31015KT 21/M00 A2983 RMK A01 T02131004  RH  024%=      5-min Rain = 0
KSP1 132010Z 31014G21KT 21/M01 A2982 RMK A01 T02131005  RH  024%=      5-min Rain = 0
KSP1 132015Z 31016G22KT 21/M01 A2982 RMK A01 T02121005  RH  024%=      5-min Rain = 0
KSP1 132020Z 31012G20KT 21/M00 A2982 RMK A01 T02101002  RH  024%=      5-min Rain = 0
KSP1 132025Z 34013G21KT 21/M00 A2982 RMK A01 T02101002  RH  025%=      5-min Rain = 0
KSP1 132030Z 33015G21KT 21/M01 A2981 RMK A01 T02101005  RH  024%=      5-min Rain = 0
KSP1 132035Z 33015G20KT 21/M01 A2981 RMK A01 T02101006  RH  024%=      5-min Rain = 0
KSP1 132040Z 33014G19KT 21/M00 A2981 RMK A01 T02121004  RH  024%=      5-min Rain = 0
KSP1 132045Z 34013G18KT 21/M01 A2981 RMK A01 T02131005  RH  024%=      5-min Rain = 0
KSP1 132050Z 33013G18KT 21/M01 A2981 RMK A01 T02121005  RH  024%=      5-min Rain = 0
KSP1 132055Z 33014KT 21/M01 A2981 RMK A01 T02111005  RH  024%=      5-min Rain = 0
KSP1 132100Z 33014G19KT 21/M01 A2981 RMK A01 T02111007  RH  023%=      5-min Rain = 0
KSP1 132105Z 33013G18KT 21/M01 A2981 RMK A01 T02111008  RH  023%=      5-min Rain = 0
KSP1 132110Z 33013G18KT 21/M01 A2982 RMK A01 T02111007  RH  023%=      5-min Rain = 0
KSP1 132115Z 31012G18KT 21/M01 A2982 RMK A01 T02111006  RH  024%=      5-min Rain = 0
KSP1 132120Z 31010KT 21/M01 A2982 RMK A01 T02121006  RH  023%=      5-min Rain = 0
KSP1 132125Z 32011G16KT 22/M01 A2982 RMK A01 T02151005  RH  023%=      5-min Rain = 0
KSP1 132130Z 32011KT 22/M01 A2982 RMK A01 T02151008  RH  023%=      5-min Rain = 0
KSP1 132135Z 32012G18KT 22/M01 A2982 RMK A01 T02161010  RH  022%=      5-min Rain = 0
KSP1 132140Z 33011KT 22/M01 A2982 RMK A01 T02161007  RH  023%=      5-min Rain = 0
KSP1 132145Z 33011G16KT 22/M01 A2982 RMK A01 T02171008  RH  022%=      5-min Rain = 0
KSP1 132150Z 31008KT 22/M01 A2982 RMK A01 T02181006  RH  023%=      5-min Rain = 0
KSP1 132155Z 32010KT 22/M00 A2982 RMK A01 T02181004  RH  023%=      5-min Rain = 0
KSP1 132200Z 31011KT 22/M01 A2982 RMK A01 T02151005  RH  023%=      5-min Rain = 0
KSP1 132205Z 32011KT 21/M00 A2982 RMK A01 T02131004  RH  024%=      5-min Rain = 0
KSP1 132210Z 32008KT 21/M00 A2982 RMK A01 T02131001  RH  024%=      5-min Rain = 0
KSP1 132215Z 32009G14KT 21/M00 A2982 RMK A01 T02131002  RH  024%=      5-min Rain = 0
KSP1 132220Z 32008KT 21/M00 A2981 RMK A01 T02131002  RH  024%=      5-min Rain = 0
KSP1 132225Z 31008KT 22/M00 A2981 RMK A01 T02151002  RH  024%=      5-min Rain = 0
KSP1 132230Z 31010KT 21/M01 A2982 RMK A01 T02141005  RH  023%=      5-min Rain = 0
KSP1 132235Z 31008KT 21/M00 A2982 RMK A01 T02141004  RH  023%=      5-min Rain = 0
KSP1 132240Z 31006KT 21/M00 A2982 RMK A01 T02141004  RH  024%=      5-min Rain = 0
KSP1 132245Z 31008KT 21/M01 A2982 RMK A01 T02141008  RH  023%=      5-min Rain = 0
KSP1 132250Z 30006KT 21/M01 A2982 RMK A01 T02131008  RH  023%=      5-min Rain = 0
KSP1 132255Z 30005KT 21/M01 A2982 RMK A01 T02111006  RH  024%=      5-min Rain = 0
KSP1 132300Z 30005KT 21/M01 A2982 RMK A01 T02081007  RH  024%=      5-min Rain = 0
KSP1 132305Z 30006KT 21/M01 A2982 RMK A01 T02051010  RH  024%=      5-min Rain = 0
KSP1 132310Z 31006KT 20/M01 A2983 RMK A01 T02011011  RH  024%=      5-min Rain = 0
KSP1 132315Z 31005KT 20/M01 A2983 RMK A01 T01961011  RH  025%=      5-min Rain = 0
KSP1 132320Z 31005KT 19/M01 A2983 RMK A01 T01901010  RH  026%=      5-min Rain = 0
KSP1 132325Z 32005KT 19/M01 A2984 RMK A01 T01851011  RH  027%=      5-min Rain = 0
KSP1 132330Z 32006KT 18/M01 A2984 RMK A01 T01811012  RH  027%=      5-min Rain = 0
KSP1 132335Z 32005KT 18/M01 A2984 RMK A01 T01771013  RH  028%=      5-min Rain = 0
KSP1 132340Z 32005KT 17/M01 A2984 RMK A01 T01711013  RH  029%=      5-min Rain = 0
KSP1 132345Z 32004KT 17/M02 A2983 RMK A01 T01671015  RH  029%=      5-min Rain = 0
KSP1 132350Z 31003KT 16/M02 A2983 RMK A01 T01631018  RH  029%=      5-min Rain = 0
KSP1 132355Z 32004KT 16/M02 A2982 RMK A01 T01601017  RH  030%=      5-min Rain = 0
KSP1 140000Z 32003KT 16/M02 A2982 RMK A01 T01571018  RH  030%=      5-min Rain = 0
KSP1 140005Z 31004KT 16/M02 A2983 RMK A01 T01571016  RH  031%=      5-min Rain = 0
KSP1 140010Z 32005KT 15/M02 A2983 RMK A01 T01541017  RH  031%=      5-min Rain = 0
KSP1 140015Z 32005KT 15/M02 A2983 RMK A01 T01451020  RH  032%=      5-min Rain = 0
KSP1 140020Z 31004KT 14/M02 A2984 RMK A01 T01441016  RH  033%=      5-min Rain = 0
KSP1 140025Z 32005KT 14/M02 A2984 RMK A01 T01351018  RH  035%=      5-min Rain = 0
KSP1 140030Z 31005KT 13/M02 A2984 RMK A01 T01311016  RH  037%=      5-min Rain = 0
KSP1 140035Z 32005KT 13/M02 A2984 RMK A01 T01291015  RH  037%=      5-min Rain = 0
KSP1 140040Z 33005KT 13/M02 A2984 RMK A01 T01261019  RH  037%=      5-min Rain = 0
KSP1 140045Z 34006KT 12/M02 A2984 RMK A01 T01221019  RH  038%=      5-min Rain = 0
KSP1 140050Z 01005KT 12/M01 A2985 RMK A01 T01161014  RH  041%=      5-min Rain = 0
KSP1 140055Z 01004KT 11/M01 A2985 RMK A01 T01071013  RH  043%=      5-min Rain = 0
KSP1 140100Z 02006KT 11/M01 A2985 RMK A01 T01051013  RH  044%=      5-min Rain = 0
KSP1 140105Z 03005KT 11/M01 A2984 RMK A01 T01091012  RH  043%=      5-min Rain = 0
KSP1 140110Z 03005KT 11/M01 A2984 RMK A01 T01061012  RH  044%=      5-min Rain = 0
KSP1 140115Z 03005KT 11/M01 A2984 RMK A01 T01061012  RH  044%=      5-min Rain = 0
KSP1 140120Z 03004KT 11/M01 A2985 RMK A01 T01061013  RH  044%=      5-min Rain = 0
KSP1 140125Z 03004KT 11/M01 A2985 RMK A01 T01071012  RH  044%=      5-min Rain = 0
KSP1 140130Z 04004KT 11/M01 A2985 RMK A01 T01071012  RH  044%=      5-min Rain = 0
KSP1 140135Z 03003KT 10/M02 A2985 RMK A01 T01001015  RH  045%=      5-min Rain = 0
KSP1 140140Z 33002KT 09/M01 A2985 RMK A01 T00931013  RH  048%=      5-min Rain = 0
KSP1 140145Z 36002KT 09/M01 A2986 RMK A01 T00871013  RH  050%=      5-min Rain = 0
KSP1 140150Z 36003KT 09/M02 A2986 RMK A01 T00861015  RH  050%=      5-min Rain = 0
KSP1 140155Z 36005KT 09/M01 A2986 RMK A01 T00901014  RH  048%=      5-min Rain = 0
KSP1 140200Z 35006KT 08/M02 A2987 RMK A01 T00831017  RH  050%=      5-min Rain = 0
KSP1 140205Z 34007KT 08/M02 A2987 RMK A01 T00791018  RH  051%=      5-min Rain = 0
KSP1 140210Z 33008KT 07/M02 A2987 RMK A01 T00711018  RH  053%=      5-min Rain = 0
KSP1 140215Z 33007KT 07/M02 A2988 RMK A01 T00681018  RH  055%=      5-min Rain = 0
KSP1 140220Z 32007KT 07/M02 A2988 RMK A01 T00721016  RH  054%=      5-min Rain = 0
KSP1 140225Z 33007KT 08/M02 A2988 RMK A01 T00761015  RH  053%=      5-min Rain = 0
KSP1 140230Z 33007KT 07/M02 A2987 RMK A01 T00741016  RH  053%=      5-min Rain = 0
KSP1 140235Z 33007KT 07/M02 A2988 RMK A01 T00731015  RH  054%=      5-min Rain = 0
KSP1 140240Z 33007KT 07/M02 A2988 RMK A01 T00701016  RH  055%=      5-min Rain = 0
KSP1 140245Z 34008KT 07/M02 A2988 RMK A01 T00671017  RH  056%=      5-min Rain = 0
KSP1 140250Z 34008KT 07/M01 A2988 RMK A01 T00661014  RH  057%=      5-min Rain = 0
KSP1 140255Z 33007KT 07/M01 A2988 RMK A01 T00651014  RH  057%=      5-min Rain = 0
KSP1 140300Z 33007KT 06/M02 A2988 RMK A01 T00631016  RH  058%=      5-min Rain = 0
KSP1 140305Z 33005KT 06/M02 A2988 RMK A01 T00591016  RH  059%=      5-min Rain = 0
KSP1 140310Z 32003KT 06/M01 A2988 RMK A01 T00591014  RH  060%=      5-min Rain = 0
KSP1 140315Z 31004KT 06/M01 A2988 RMK A01 T00621012  RH  059%=      5-min Rain = 0
KSP1 140320Z 28003KT 06/M01 A2988 RMK A01 T00641013  RH  059%=      5-min Rain = 0
KSP1 140325Z 29002KT 06/M01 A2987 RMK A01 T00611014  RH  059%=      5-min Rain = 0
KSP1 140330Z 27002KT 06/M01 A2987 RMK A01 T00611013  RH  059%=      5-min Rain = 0
KSP1 140335Z 28002KT 06/M02 A2987 RMK A01 T00601015  RH  059%=      5-min Rain = 0
KSP1 140340Z 30002KT 06/M01 A2986 RMK A01 T00591012  RH  061%=      5-min Rain = 0
KSP1 140345Z 32003KT 06/M01 A2987 RMK A01 T00601013  RH  060%=      5-min Rain = 0
KSP1 140350Z 34007KT 05/M02 A2988 RMK A01 T00511021  RH  060%=      5-min Rain = 0
KSP1 140355Z 33008KT 05/M02 A2988 RMK A01 T00471018  RH  063%=      5-min Rain = 0
KSP1 140400Z 33008KT 05/M02 A2988 RMK A01 T00531017  RH  061%=      5-min Rain = 0
KSP1 140405Z 33007KT 06/M02 A2988 RMK A01 T00551018  RH  060%=      5-min Rain = 0
KSP1 140410Z 32006KT 06/M02 A2988 RMK A01 T00571016  RH  060%=      5-min Rain = 0
KSP1 140415Z 32006KT 06/M01 A2988 RMK A01 T00591014  RH  060%=      5-min Rain = 0
KSP1 140420Z 31007KT 06/M01 A2989 RMK A01 T00571013  RH  061%=      5-min Rain = 0
KSP1 140425Z 32007KT 06/M01 A2988 RMK A01 T00581013  RH  061%=      5-min Rain = 0
KSP1 140430Z 31007KT 06/M01 A2988 RMK A01 T00571013  RH  061%=      5-min Rain = 0
KSP1 140435Z 31006KT 06/M01 A2988 RMK A01 T00581014  RH  061%=      5-min Rain = 0
KSP1 140440Z 32006KT 06/M02 A2989 RMK A01 T00561018  RH  060%=      5-min Rain = 0
KSP1 140445Z 33007KT 05/M02 A2989 RMK A01 T00541018  RH  060%=      5-min Rain = 0
KSP1 140450Z 35007KT 06/M02 A2988 RMK A01 T00561016  RH  060%=      5-min Rain = 0
KSP1 140455Z 35007KT 06/M02 A2988 RMK A01 T00581015  RH  060%=      5-min Rain = 0
KSP1 140500Z 33007KT 05/M02 A2988 RMK A01 T00511016  RH  062%=      5-min Rain = 0
KSP1 140505Z 35005KT 05/M02 A2988 RMK A01 T00501016  RH  063%=      5-min Rain = 0
KSP1 140510Z 01006KT 05/M01 A2988 RMK A01 T00511014  RH  063%=      5-min Rain = 0
KSP1 140515Z 01006KT 06/M01 A2989 RMK A01 T00561013  RH  062%=      5-min Rain = 0
KSP1 140520Z 36005KT 05/M02 A2988 RMK A01 T00531016  RH  062%=      5-min Rain = 0
KSP1 140525Z 35006KT 05/M02 A2989 RMK A01 T00461017  RH  065%=      5-min Rain = 0
KSP1 140530Z 35006KT 04/M02 A2989 RMK A01 T00421017  RH  066%=      5-min Rain = 0
KSP1 140535Z 34006KT 04/M02 A2989 RMK A01 T00391018  RH  067%=      5-min Rain = 0
KSP1 140540Z 34007KT 04/M02 A2989 RMK A01 T00421015  RH  067%=      5-min Rain = 0
KSP1 140545Z 35008KT 04/M02 A299 RMK A01 T00411017  RH  067%=      5-min Rain = 0
KSP1 140550Z 01006KT 04/M01 A2989 RMK A01 T00421014  RH  068%=      5-min Rain = 0
KSP1 140555Z 02006KT 05/M01 A2989 RMK A01 T00521010  RH  065%=      5-min Rain = 0

Page generated in 0.0196 seconds.